Flight Track Log - Related Links

Times and Time Zones

All times are in EST time to prevent confusion due to time zone crossing. See the EJA668 flight status page for this flight to view local times or setup timezone preferences in your user account.

Time Position Orientation Groundspeed Altitude Reporting Facility
EST Latitude Longitude Course Direction KTS MPH feet Rate Location/Type
Mon 01:41:36 PM 40.4872 -107.2331 306° West 5 6 6,600  Level Denver Center
Mon 01:42:38 PM 40.4653 -107.1883 123° Southeast 129 148 8,000 2,565 Climbing Denver Center
Mon 01:43:40 PM 40.4147 -107.1561 154° Southeast 179 206 11,900 2,855 Climbing Denver Center
Mon 01:44:42 PM 40.3856 -107.2028 231° Southwest 228 262 13,900 2,806 Climbing Denver Center
Mon 01:45:44 PM 40.4483 -107.2428 334° Northwest 242 278 17,700 2,468 Climbing Denver Center
Mon 01:46:46 PM 40.5125 -107.2983 327° Northwest 286 329 19,000 1,452 Climbing Denver Center
Mon 01:47:00 PM 40.4875 -107.2324 300° West  Level FlightAware Approximate
Mon 01:47:48 PM 40.5808 -107.4000 312° West 329 379 20,700  Level Denver Center
Mon 01:48:00 PM 40.5276 -107.3197 306° West  Level FlightAware Approximate
Mon 01:48:50 PM 40.6408 -107.4928 310° West 343 395 22,200  Level Denver Center
Mon 01:49:53 PM 40.7122 -107.6056 310° West 356 410 23,900 1,571 Climbing Denver Center
Mon 01:50:56 PM 40.7817 -107.7131 310° West 359 413 25,500 1,452 Climbing Denver Center
Mon 01:51:57 PM 40.8442 -107.8094 311° West 360 414 26,900 1,512 Climbing Denver Center
Mon 01:52:59 PM 40.9131 -107.9214 309° West 356 410 28,600 1,355 Climbing Denver Center
Mon 01:54:01 PM 40.9736 -108.0172 310° West 354 407 29,700 677 Climbing Denver Center
Mon 01:55:03 PM 41.0442 -108.1308 309° West 356 410 30,000 207 Climbing Denver Center
Mon 01:55:28 PM 41.0647 -108.1628 310° West 356 410 30,000  Level Denver Center
Mon 01:56:30 PM 41.1314 -108.2833 306° West 360 414 30,000  Level Denver Center
Mon 01:57:32 PM 41.1125 -108.4092 259° West 370 426 30,000 774 Level Denver Center
Mon 01:58:34 PM 40.9936 -108.4642 199° South 446 513 31,600 1,680 Climbing Denver Center
Mon 01:59:37 PM 40.8794 -108.4108 161° South 454 522 33,500 2,016 Climbing Denver Center
Mon 02:00:39 PM 40.7719 -108.3583 160° South 432 497 35,800 2,177 Climbing Denver Center
Mon 02:01:41 PM 40.6519 -108.3017 160° South 398 458 38,000 1,500 Climbing Denver Center
Mon 02:02:43 PM 40.5525 -108.2536 160° South 396 456 38,900 484 Climbing Denver Center
Mon 02:03:45 PM 40.4322 -108.1983 161° South 407 468 39,000 44 Climbing Denver Center
Mon 02:04:59 PM 40.3256 -108.1481 160° South 421 484 39,000  Level Denver Center
Mon 02:06:02 PM 40.1822 -108.0808 160° South 424 488 39,000  Level Denver Center
Mon 02:07:04 PM 40.0750 -108.0306 160° South 425 489 39,000  Level Denver Center
Mon 02:08:05 PM 39.9853 -107.9889 160° South 425 489 39,000  Level Denver Center
Mon 02:09:08 PM 39.8406 -107.9222 161° South 426 490 39,000  Level Denver Center
Mon 02:10:10 PM 39.7164 -107.8661 161° South 422 486 39,000  Level Denver Center
Mon 02:11:12 PM 39.6083 -107.8156 160° South 422 486 39,000  Level Denver Center
Mon 02:12:14 PM 39.4806 -107.7575 161° South 431 496 39,000  Level Denver Center
Mon 02:13:16 PM 39.3728 -107.7089 161° South 431 496 39,000  Level Denver Center
Mon 02:14:18 PM 39.2639 -107.6589 160° South 431 496 39,000  Level Denver Center
Mon 02:15:21 PM 39.1392 -107.6028 161° South 425 489 39,000  Level Denver Center
Mon 02:16:23 PM 39.0311 -107.5553 161° South 425 489 39,000  Level Denver Center
Mon 02:17:25 PM 38.9061 -107.4978 160° South 426 490 39,000  Level Denver Center
Mon 02:18:27 PM 38.7986 -107.4508 161° South 425 489 39,000  Level Denver Center
Mon 02:19:29 PM 38.6731 -107.3956 161° South 426 490 39,000  Level Denver Center
Mon 02:20:31 PM 38.5642 -107.3472 161° South 431 496 39,000  Level Denver Center
Mon 02:21:33 PM 38.4369 -107.2911 161° South 431 496 39,000  Level Denver Center
Mon 02:22:35 PM 38.3283 -107.2436 161° South 431 496 39,000  Level Denver Center
Mon 02:23:37 PM 38.2022 -107.1856 160° South 431 496 39,000  Level Denver Center
Mon 02:24:39 PM 38.1022 -107.1431 162° South 431 496 39,000  Level Denver Center
Mon 02:25:41 PM 37.9692 -107.0819 160° South 426 490 39,000  Level Denver Center
Mon 02:26:44 PM 37.8606 -107.0367 162° South 426 490 39,000  Level Denver Center
Mon 02:27:46 PM 37.7467 -106.9858 161° South 429 494 39,000  Level Denver Center
Mon 02:28:48 PM 37.6197 -106.9306 161° South 430 495 39,000  Level Denver Center
Mon 02:29:50 PM 37.5108 -106.8850 162° South 429 494 39,000  Level Denver Center
Mon 02:30:52 PM 37.3844 -106.8303 161° South 429 494 39,000  Level Denver Center
Mon 02:31:54 PM 37.2753 -106.7839 161° South 432 497 39,000 -97 Level Denver Center
Mon 02:32:56 PM 37.1667 -106.7364 161° South 431 496 38,800 -1,258 Descending Denver Center
Mon 02:33:58 PM 37.0428 -106.6839 161° South 422 486 36,400 -2,226 Descending Denver Center
Mon 02:35:00 PM 36.9378 -106.6389 161° South 417 480 34,200 -2,371 Descending Denver Center
Mon 02:36:02 PM 36.8117 -106.5856 161° South 421 484 31,500 -2,468 Descending Denver Center
Mon 02:37:04 PM 36.7078 -106.5417 161° South 416 479 29,100 -2,177 Descending Denver Center
Mon 02:38:06 PM 36.5847 -106.4917 162° South 421 484 27,000 -984 Descending Denver Center
Mon 02:39:12 PM 36.4736 -106.4447 161° South 429 494 27,000 -234 Level Albuquerque Center
Mon 02:40:14 PM 36.3369 -106.3875 161° South 431 496 26,500 -1,415 Descending Albuquerque Center
Mon 02:41:15 PM 36.2244 -106.3411 162° South 427 491 24,100 -2,390 Descending Albuquerque Center
Mon 02:42:17 PM 36.1106 -106.2922 161° South 431 496 21,600 -2,419 Descending Albuquerque Center
Mon 02:43:19 PM 35.9994 -106.2467 162° South 425 489 19,100 -2,468 Descending Albuquerque Center
Mon 02:44:21 PM 35.8925 -106.2025 162° South 403 464 16,500 -2,710 Descending Albuquerque Center
Mon 02:45:23 PM 35.7956 -106.1625 161° South 377 434 13,500 -2,049 Descending Albuquerque Center
Mon 02:46:24 PM 35.7139 -106.1289 162° South 314 361 12,300 -1,854 Descending Albuquerque Center
Mon 02:47:26 PM 35.6314 -106.1614 198° South 286 329 9,700 -2,081 Descending Albuquerque Center
Mon 02:48:28 PM 35.5775 -106.1692 187° South 230 265 8,000 -1,306 Descending Albuquerque Center
Mon 02:49:30 PM 35.5783 -106.1217 89° East 172 198 7,000 -968 Descending Albuquerque Center

Login

Don't have an account? Register now (free) for customized features, flight alerts, and more!